Terminal Aerodrome Forecast
Issued by NWS

Home | Current Version | Previous Version | Text Only | Print | Product List | Glossary On
Versions: 1 2 3 4 5 6 7 8 9 10 11 12 13 14 15 16
154
FTUS46 KHNX 191343 AAA
TAFMCE
TAF AMD
KMCE 191343Z 1914/2012 30006KT P6SM SCT035 BKN050
      TEMPO 1914/1918 BKN035
     FM191800 13010KT P6SM OVC040
     FM200000 13012KT P6SM -RA OVC040
      TEMPO 2008/2012 13017G25KT 4SM RA BR OVC030=

USA.gov is the U.S. government's official web portal to all federal, state and local government web resources and services.